Time;durP1;ratioP1;P1;durP2;ratioP2;P2;SDS_P1;SDS_P2;PMS_P1;PMS_P2;Temp;Humidity;BMP_temperature;BMP_pressure;BME280_temperature;BME280_humidity;BME280_pressure;Samples;Min_cycle;Max_cycle;Signal;HPM_P1;HPM_P2
2021/07/30 00:00:18;;;;;;;1.30;0.57;;;;;;;12.13;100.00;98897.94;4700910;30;20056;-76
2021/07/30 00:03:21;;;;;;;1.85;0.30;;;;;;;12.12;100.00;98902.03;4698839;30;20077;-75
2021/07/30 00:06:25;;;;;;;0.68;0.50;;;;;;;12.10;100.00;98896.19;4683978;30;20166;-75
2021/07/30 00:09:29;;;;;;;1.75;0.40;;;;;;;12.08;100.00;98889.59;4682981;30;20127;-76
2021/07/30 00:12:32;;;;;;;1.00;0.55;;;;;;;12.01;100.00;98885.28;4683420;30;20065;-75
2021/07/30 00:15:36;;;;;;;0.52;0.52;;;;;;;11.97;100.00;98879.22;4684451;30;20061;-77
2021/07/30 00:18:39;;;;;;;0.85;0.40;;;;;;;11.96;100.00;98871.31;4683211;30;20081;-76
2021/07/30 00:21:42;;;;;;;0.40;0.35;;;;;;;11.94;100.00;98857.91;4683526;30;20061;-75
2021/07/30 00:24:46;;;;;;;2.05;0.47;;;;;;;11.92;100.00;98870.81;4683914;30;20520;-75
2021/07/30 00:27:49;;;;;;;2.50;0.50;;;;;;;11.92;100.00;98868.03;4684039;30;20425;-76
2021/07/30 00:30:52;;;;;;;2.80;0.52;;;;;;;11.91;100.00;98863.75;4684075;30;20412;-75
2021/07/30 00:33:56;;;;;;;5.57;0.32;;;;;;;11.89;100.00;98872.59;4683780;30;20060;-75
2021/07/30 00:36:59;;;;;;;0.38;0.25;;;;;;;11.88;100.00;98865.50;4684104;30;20057;-75
2021/07/30 00:40:03;;;;;;;1.42;0.28;;;;;;;11.88;100.00;98850.81;4683742;30;20061;-75
2021/07/30 00:43:07;;;;;;;9.50;0.63;;;;;;;11.88;100.00;98846.00;4683891;30;20077;-75
2021/07/30 00:46:10;;;;;;;2.72;0.45;;;;;;;11.81;100.00;98849.28;4683307;30;20069;-75
2021/07/30 00:49:14;;;;;;;0.28;0.10;;;;;;;11.81;100.00;98846.50;4683511;30;20852;-75
2021/07/30 00:52:18;;;;;;;7.45;0.65;;;;;;;11.79;100.00;98834.31;4683193;30;20065;-75
2021/07/30 00:55:23;;;;;;;0.43;0.17;;;;;;;11.79;100.00;98835.09;4683205;30;20057;-76
2021/07/30 00:58:29;;;;;;;1.48;0.43;;;;;;;11.79;100.00;98826.72;4683154;30;20069;-75
2021/07/30 01:01:34;;;;;;;0.32;0.22;;;;;;;11.79;100.00;98826.72;4682977;30;20065;-75
2021/07/30 01:04:37;;;;;;;0.68;0.25;;;;;;;11.80;100.00;98825.44;4694209;30;20064;-75
2021/07/30 01:07:41;;;;;;;0.47;0.15;;;;;;;11.82;100.00;98828.50;4700371;30;20084;-75
2021/07/30 01:10:44;;;;;;;1.48;0.30;;;;;;;11.85;100.00;98832.28;4700390;30;20533;-75
2021/07/30 01:13:48;;;;;;;0.70;0.50;;;;;;;11.85;100.00;98824.69;4700314;30;20064;-75
2021/07/30 01:16:51;;;;;;;3.03;0.73;;;;;;;11.88;100.00;98832.03;4699909;30;20060;-75
2021/07/30 01:19:55;;;;;;;0.95;0.60;;;;;;;11.87;100.00;98830.50;4700435;30;20065;-75
2021/07/30 01:23:00;;;;;;;0.70;0.55;;;;;;;11.87;100.00;98822.13;4700317;30;20060;-75
2021/07/30 01:26:03;;;;;;;2.90;0.65;;;;;;;11.88;100.00;98815.28;4700473;30;20420;-75
2021/07/30 01:29:07;;;;;;;1.05;0.73;;;;;;;11.88;100.00;98820.88;4700364;30;20064;-75
2021/07/30 01:32:10;;;;;;;0.13;0.13;;;;;;;11.91;100.00;98807.94;4700269;30;20074;-75
2021/07/30 01:35:14;;;;;;;0.47;0.30;;;;;;;11.93;100.00;98817.28;4700061;30;20064;-75
2021/07/30 01:38:17;;;;;;;1.55;0.40;;;;;;;11.94;100.00;98813.25;4699790;30;20079;-76
2021/07/30 01:41:20;;;;;;;1.38;0.80;;;;;;;11.95;100.00;98814.03;4699741;30;20061;-75
2021/07/30 01:44:24;;;;;;;0.77;0.30;;;;;;;11.94;100.00;98813.25;4699731;30;20070;-76
2021/07/30 01:47:27;;;;;;;0.63;0.30;;;;;;;11.92;100.00;98804.63;4699659;30;20780;-75
2021/07/30 01:50:30;;;;;;;4.22;1.13;;;;;;;11.92;100.00;98801.84;4699397;30;20064;-76
2021/07/30 01:53:34;;;;;;;1.05;0.50;;;;;;;11.92;100.00;98798.28;4698928;30;20527;-75
2021/07/30 01:56:38;;;;;;;1.05;0.50;;;;;;;11.94;100.00;98790.94;4698279;30;20138;-75
2021/07/30 01:59:42;;;;;;;0.85;0.40;;;;;;;11.90;100.00;98784.84;4699208;30;20423;-75
2021/07/30 02:02:47;;;;;;;1.15;0.20;;;;;;;11.89;100.00;98783.31;4699977;30;20407;-75
2021/07/30 02:05:50;;;;;;;1.02;0.30;;;;;;;11.87;100.00;98780.28;4681530;30;20062;-75
2021/07/30 02:08:54;;;;;;;1.40;0.85;;;;;;;11.85;100.00;98762.53;4682294;30;20061;-75
2021/07/30 02:11:57;;;;;;;4.57;0.95;;;;;;;11.84;100.00;98763.81;4681425;30;20077;-75
2021/07/30 02:15:01;;;;;;;0.65;0.63;;;;;;;11.81;100.00;98754.44;4682398;30;20065;-75
2021/07/30 02:18:04;;;;;;;7.00;0.82;;;;;;;11.79;100.00;98748.63;4681693;30;20618;-76
2021/07/30 02:21:07;;;;;;;0.20;0.20;;;;;;;11.81;100.00;98751.66;4681986;30;20071;-76
2021/07/30 02:24:11;;;;;;;0.70;0.25;;;;;;;11.79;100.00;98751.41;4682479;30;20069;-75
2021/07/30 02:27:15;;;;;;;9.43;0.32;;;;;;;11.75;100.00;98750.91;4681663;30;20614;-75
2021/07/30 02:30:18;;;;;;;1.35;0.30;;;;;;;11.71;100.00;98744.84;4681594;30;20057;-75
2021/07/30 02:33:21;;;;;;;5.05;0.38;;;;;;;11.69;100.00;98741.03;4681582;30;20069;-75
2021/07/30 02:36:25;;;;;;;2.78;0.38;;;;;;;11.67;100.00;98733.19;4681613;30;20064;-76
2021/07/30 02:39:29;;;;;;;1.67;0.75;;;;;;;11.65;100.00;98741.25;4681440;30;20065;-76
2021/07/30 02:42:32;;;;;;;0.45;0.43;;;;;;;11.62;100.00;98728.34;4681465;30;20075;-75
2021/07/30 02:45:36;;;;;;;1.25;0.40;;;;;;;11.62;100.00;98722.75;4681391;30;20069;-76
2021/07/30 02:48:40;;;;;;;0.20;0.13;;;;;;;11.64;100.00;98723.00;4681565;30;20073;-75
2021/07/30 02:51:43;;;;;;;1.45;0.57;;;;;;;11.63;100.00;98724.25;4681447;30;20057;-76
2021/07/30 02:54:46;;;;;;;1.13;0.35;;;;;;;11.60;100.00;98711.34;4681417;30;20062;-76
2021/07/30 02:57:50;;;;;;;0.65;0.30;;;;;;;11.61;100.00;98698.91;4681901;30;20069;-76
2021/07/30 03:00:53;;;;;;;2.42;0.75;;;;;;;11.60;100.00;98689.06;4680452;30;20068;-76
2021/07/30 03:03:56;;;;;;;6.20;0.95;;;;;;;11.62;100.00;98688.53;4687924;30;20057;-76
2021/07/30 03:07:00;;;;;;;8.18;0.82;;;;;;;11.63;100.00;98674.06;4698671;30;20065;-76
2021/07/30 03:10:03;;;;;;;3.63;0.60;;;;;;;11.66;100.00;98667.47;4698621;30;20057;-76
2021/07/30 03:13:07;;;;;;;2.03;0.80;;;;;;;11.69;100.00;98660.16;4698683;30;20064;-76
2021/07/30 03:16:13;;;;;;;2.45;0.95;;;;;;;11.72;100.00;98651.50;4698608;30;20060;-77
2021/07/30 03:19:16;;;;;;;0.70;0.65;;;;;;;11.75;100.00;98644.91;4698476;30;20068;-76
2021/07/30 03:22:20;;;;;;;6.47;0.85;;;;;;;11.78;100.00;98635.50;4698092;30;20515;-76
2021/07/30 03:25:23;;;;;;;6.70;1.15;;;;;;;11.81;100.00;98630.94;4697802;30;20139;-77
2021/07/30 03:28:26;;;;;;;2.58;0.90;;;;;;;11.81;100.00;98637.28;4697610;30;20069;-76
2021/07/30 03:31:30;;;;;;;5.40;0.98;;;;;;;11.85;100.00;98631.44;4697827;30;20084;-76
2021/07/30 03:34:33;;;;;;;0.50;0.20;;;;;;;11.88;100.00;98625.59;4697783;30;20056;-77
2021/07/30 03:37:36;;;;;;;9.65;1.38;;;;;;;11.90;100.00;98623.03;4697839;30;20068;-77
2021/07/30 03:40:42;;;;;;;3.45;1.10;;;;;;;11.91;100.00;98612.66;4697962;30;20523;-77
2021/07/30 03:43:45;;;;;;;1.38;0.55;;;;;;;11.95;100.00;98608.28;4698363;30;20062;-76
2021/07/30 03:46:49;;;;;;;1.35;0.98;;;;;;;11.95;100.00;98602.72;4698206;30;20064;-77
2021/07/30 03:49:52;;;;;;;5.93;0.52;;;;;;;11.99;100.00;98602.47;4698057;30;20073;-76
2021/07/30 03:53:00;;;;;;;2.03;1.13;;;;;;;11.99;100.00;98599.66;4698040;30;20066;-76
2021/07/30 03:56:15;;;;;;;9.65;0.85;;;;;;;12.01;100.00;98603.47;4698130;30;20065;-78
2021/07/30 03:59:18;;;;;;;4.90;1.23;;;;;;;12.05;100.00;98601.16;4697742;30;20075;-77
2021/07/30 04:02:22;;;;;;;8.32;1.05;;;;;;;12.03;100.00;98597.34;4697797;30;20068;-77
2021/07/30 04:05:25;;;;;;;3.55;1.10;;;;;;;12.04;100.00;98591.25;4680461;30;20065;-77
2021/07/30 04:08:28;;;;;;;2.55;0.73;;;;;;;12.08;100.00;98580.56;4680530;30;20416;-77
2021/07/30 04:11:31;;;;;;;4.70;1.23;;;;;;;12.09;100.00;98578.53;4680306;30;20428;-77
2021/07/30 04:14:35;;;;;;;4.55;1.58;;;;;;;12.10;100.00;98577.28;4680405;30;20080;-77
2021/07/30 04:17:39;;;;;;;4.30;1.05;;;;;;;12.07;100.00;98565.13;4680279;30;20073;-77
2021/07/30 04:20:42;;;;;;;3.88;1.08;;;;;;;12.06;100.00;98571.97;4680259;30;20081;-77
2021/07/30 04:23:46;;;;;;;3.40;0.77;;;;;;;12.03;100.00;98561.84;4680830;30;20404;-77
2021/07/30 04:26:49;;;;;;;2.85;0.65;;;;;;;12.04;100.00;98554.25;4680681;30;20065;-77
2021/07/30 04:29:52;;;;;;;0.65;0.17;;;;;;;12.06;100.00;98557.28;4680417;30;20069;-77
2021/07/30 04:32:55;;;;;;;1.23;0.50;;;;;;;12.03;100.00;98547.91;4680910;30;20072;-78
2021/07/30 04:35:59;;;;;;;1.10;0.20;;;;;;;12.05;100.00;98544.59;4680501;30;20065;-77
2021/07/30 04:39:02;;;;;;;8.18;0.43;;;;;;;12.01;100.00;98539.28;4680009;30;20061;-77
2021/07/30 04:42:06;;;;;;;1.05;0.22;;;;;;;12.03;100.00;98531.16;4683998;30;20071;-77
2021/07/30 07:31:51;;;;;;;4.20;2.28;;;;;;;14.58;100.00;76596.78;5088901;27;20382;-78
2021/07/30 07:34:55;;;;;;;11.63;2.72;;;;;;;14.57;100.00;98381.00;5088828;28;20059;-75
2021/07/30 07:38:06;;;;;;;4.32;1.40;;;;;;;14.53;100.00;98374.94;5088808;28;20496;-75
2021/07/30 07:41:10;;;;;;;6.43;2.88;;;;;;;-142.77;100.00;74826.00;5088732;28;20059;-75
2021/07/30 07:44:15;;;;;;;9.40;1.95;;;;;;;-142.77;100.00;74826.00;5088793;28;20055;-75
2021/07/30 07:47:18;;;;;;;4.45;2.10;;;;;;;-142.77;100.00;74826.00;5087680;28;20047;-77
2021/07/30 07:50:22;;;;;;;5.25;1.85;;;;;;;-142.77;100.00;74826.00;5088147;28;20055;-77
2021/07/30 07:53:25;;;;;;;4.38;2.08;;;;;;;-142.77;100.00;74826.00;5087736;28;20504;-75
2021/07/30 07:56:29;;;;;;;6.55;2.45;;;;;;;-142.77;100.00;74826.00;5087858;28;20401;-74
2021/07/30 07:59:34;;;;;;;3.05;2.08;;;;;;;-142.77;100.00;74826.00;5087885;28;20063;-76
2021/07/30 08:02:37;;;;;;;5.63;2.10;;;;;;;-142.77;100.00;74826.00;5087912;28;20115;-76
2021/07/30 08:05:41;;;;;;;4.47;1.80;;;;;;;-142.77;100.00;74826.00;5087859;28;20059;-76
2021/07/30 08:08:45;;;;;;;4.53;1.60;;;;;;;-142.77;100.00;74826.00;5088180;28;20040;-73
2021/07/30 08:11:48;;;;;;;1.35;0.90;;;;;;;-142.77;100.00;74826.00;5088260;28;20055;-73
2021/07/30 08:14:52;;;;;;;4.10;1.08;;;;;;;-142.77;100.00;74826.00;5088189;28;20055;-73
2021/07/30 08:17:55;;;;;;;1.50;1.40;;;;;;;-142.77;100.00;74826.00;5088033;28;20055;-72
2021/07/30 08:21:00;;;;;;;2.40;1.33;;;;;;;-142.77;100.00;74826.00;5088087;28;20115;-73
2021/07/30 08:24:03;;;;;;;1.95;1.40;;;;;;;-142.77;100.00;74826.00;5087878;28;20055;-73
2021/07/30 08:27:07;;;;;;;3.75;1.58;;;;;;;-142.77;100.00;74826.00;5088004;28;20055;-73
2021/07/30 08:30:11;;;;;;;3.20;1.52;;;;;;;-142.77;100.00;74826.00;5087785;28;20405;-74
2021/07/30 08:33:16;;;;;;;0.98;0.65;;;;;;;-142.77;100.00;74826.00;5074427;28;20047;-74
2021/07/30 08:36:20;;;;;;;1.67;0.90;;;;;;;-142.77;100.00;74826.00;5074013;28;20051;-75
2021/07/30 08:39:23;;;;;;;2.60;1.05;;;;;;;-142.77;100.00;74826.00;5073654;28;20485;-75
2021/07/30 08:42:27;;;;;;;0.95;0.77;;;;;;;-142.77;100.00;74826.00;5073623;28;20055;-74
2021/07/30 08:45:30;;;;;;;3.53;0.68;;;;;;;-142.77;100.00;74826.00;5073624;28;20056;-74
2021/07/30 08:48:34;;;;;;;2.67;0.75;;;;;;;-142.77;100.00;74826.00;5073358;28;20409;-74
2021/07/30 08:51:42;;;;;;;4.18;0.75;;;;;;;-142.77;100.00;74826.00;5073423;28;20067;-74
2021/07/30 08:54:51;;;;;;;1.13;0.77;;;;;;;-142.77;100.00;74826.00;5073663;28;20053;-74
2021/07/30 08:57:55;;;;;;;2.58;1.50;;;;;;;-142.77;100.00;74826.00;5073853;28;20047;-74
2021/07/30 09:00:58;;;;;;;3.60;1.30;;;;;;;-142.77;100.00;74826.00;5073811;28;20063;-74
2021/07/30 09:04:02;;;;;;;2.58;0.93;;;;;;;-142.77;100.00;74826.00;5073607;28;20055;-75
2021/07/30 09:07:06;;;;;;;3.03;1.30;;;;;;;-142.77;100.00;74826.00;5073344;28;20055;-76
2021/07/30 09:10:09;;;;;;;3.67;1.30;;;;;;;-142.77;100.00;74826.00;5073510;28;20051;-75
2021/07/30 09:13:17;;;;;;;3.22;0.73;;;;;;;-142.77;100.00;74826.00;5073285;28;20071;-75
2021/07/30 09:16:21;;;;;;;1.08;0.70;;;;;;;-142.77;100.00;74826.00;5073037;28;20059;-76
2021/07/30 09:19:25;;;;;;;3.22;1.58;;;;;;;-142.77;100.00;74826.00;5072848;28;20055;-74
2021/07/30 09:22:46;;;;;;;2.38;1.33;;;;;;;-142.77;100.00;74826.00;5072889;28;20052;-74
2021/07/30 09:25:49;;;;;;;2.28;1.00;;;;;;;-142.77;100.00;74826.00;5072540;28;20051;-74
2021/07/30 09:28:58;;;;;;;2.28;1.23;;;;;;;-142.77;100.00;74826.00;5073180;28;20052;-75
2021/07/30 09:32:13;;;;;;;3.15;1.10;;;;;;;-142.77;100.00;74826.00;5073184;28;20059;-74
2021/07/30 09:35:17;;;;;;;3.25;1.10;;;;;;;-142.77;100.00;74826.00;5073336;28;20059;-74
2021/07/30 09:38:20;;;;;;;3.80;1.23;;;;;;;-142.77;100.00;74826.00;5072591;28;20870;-74
2021/07/30 09:41:24;;;;;;;2.20;0.95;;;;;;;-142.77;100.00;74826.00;5072319;28;20060;-73
2021/07/30 09:44:28;;;;;;;2.63;1.85;;;;;;;-142.77;100.00;74826.00;5071673;28;20051;-73
2021/07/30 09:47:34;;;;;;;2.70;1.38;;;;;;;-142.77;100.00;74826.00;5072424;28;20382;-73
2021/07/30 09:50:38;;;;;;;6.80;1.65;;;;;;;-142.77;100.00;74826.00;5074128;28;20056;-73
2021/07/30 09:53:44;;;;;;;6.72;1.58;;;;;;;-142.77;100.00;74826.00;5071657;28;20055;-73
2021/07/30 09:56:48;;;;;;;4.82;1.98;;;;;;;-142.77;100.00;74826.00;5072219;28;20056;-75
2021/07/30 09:59:58;;;;;;;3.72;1.33;;;;;;;-142.77;100.00;74826.00;5072634;28;20501;-74
2021/07/30 10:03:02;;;;;;;1.77;1.07;;;;;;;-142.77;100.00;74826.00;5072578;28;20055;-73
2021/07/30 10:06:06;;;;;;;5.18;0.85;;;;;;;-142.77;100.00;74826.00;5072515;28;20063;-73
2021/07/30 10:09:11;;;;;;;5.35;1.48;;;;;;;-142.77;100.00;74826.00;5072334;28;20064;-73
2021/07/30 10:12:15;;;;;;;8.18;2.35;;;;;;;-142.77;100.00;74826.00;5072462;28;20486;-73
2021/07/30 10:15:19;;;;;;;2.95;0.93;;;;;;;-142.77;100.00;74826.00;5072204;28;20052;-73
2021/07/30 10:18:22;;;;;;;4.20;1.77;;;;;;;-142.77;100.00;74826.00;5071943;28;20045;-75
2021/07/30 10:21:26;;;;;;;3.13;1.58;;;;;;;-142.77;100.00;74826.00;5071562;28;20056;-75
2021/07/30 10:24:34;;;;;;;4.78;2.13;;;;;;;-142.77;100.00;74826.00;5071637;28;20041;-75
2021/07/30 10:27:42;;;;;;;11.30;1.73;;;;;;;-142.77;100.00;74826.00;5071497;28;20048;-75
2021/07/30 10:30:53;;;;;;;2.85;1.23;;;;;;;-142.77;100.00;74826.00;5071662;28;20048;-74
2021/07/30 10:33:56;;;;;;;2.53;1.05;;;;;;;-142.77;100.00;74826.00;5072004;28;20048;-75
2021/07/30 10:37:00;;;;;;;3.72;0.82;;;;;;;-142.77;100.00;74826.00;5071953;28;20053;-74
2021/07/30 10:40:20;;;;;;;7.88;1.88;;;;;;;-142.77;100.00;74826.00;5072011;28;20102;-73
2021/07/30 10:43:27;;;;;;;2.37;1.07;;;;;;;-142.77;100.00;74826.00;5072114;28;20048;-77
2021/07/30 10:46:31;;;;;;;6.90;0.95;;;;;;;-142.77;100.00;74826.00;5071482;28;20777;-77
2021/07/30 10:49:41;;;;;;;2.70;1.77;;;;;;;-142.77;100.00;74826.00;5071574;28;20486;-74
2021/07/30 10:52:44;;;;;;;3.85;1.45;;;;;;;-142.77;100.00;74826.00;5071237;28;20056;-75
2021/07/30 10:55:48;;;;;;;4.00;1.13;;;;;;;-142.77;100.00;74826.00;5071190;28;20398;-75
2021/07/30 10:58:55;;;;;;;2.47;1.10;;;;;;;-142.77;100.00;74826.00;5071680;28;20483;-75
2021/07/30 11:02:00;;;;;;;4.90;1.42;;;;;;;-142.77;100.00;74826.00;5071368;28;20052;-75
2021/07/30 11:05:07;;;;;;;2.28;1.10;;;;;;;-142.77;100.00;74826.00;5071302;28;20045;-75
2021/07/30 11:08:10;;;;;;;3.78;1.70;;;;;;;-142.77;100.00;74826.00;5071429;28;20052;-75
2021/07/30 11:11:36;;;;;;;0.93;0.57;;;;;;;-142.77;100.00;74826.00;5071570;28;20482;-75
2021/07/30 11:14:42;;;;;;;4.70;1.85;;;;;;;-142.77;100.00;74826.00;5071324;28;20059;-75
2021/07/30 11:17:50;;;;;;;4.40;1.98;;;;;;;-142.77;100.00;74826.00;5071396;28;20041;-76
2021/07/30 11:20:57;;;;;;;1.50;0.98;;;;;;;-142.77;100.00;74826.00;5071741;28;20059;-76
2021/07/30 11:24:02;;;;;;;1.65;1.15;;;;;;;-142.77;100.00;74826.00;5071537;28;20048;-76
2021/07/30 11:27:06;;;;;;;3.15;1.27;;;;;;;-142.77;100.00;74826.00;5071124;28;20068;-76
2021/07/30 11:30:10;;;;;;;3.25;1.35;;;;;;;-142.77;100.00;74826.00;5071050;28;20402;-76
2021/07/30 11:33:14;;;;;;;4.15;0.90;;;;;;;-142.77;100.00;74826.00;5071473;28;20052;-75
2021/07/30 11:36:19;;;;;;;0.73;0.50;;;;;;;-142.77;100.00;74826.00;5071735;28;20509;-76
2021/07/30 11:39:30;;;;;;;3.05;1.65;;;;;;;-142.77;100.00;74826.00;5071014;28;20045;-75
2021/07/30 11:42:34;;;;;;;13.68;1.45;;;;;;;-142.77;100.00;74826.00;5070872;28;20059;-75
2021/07/30 11:45:38;;;;;;;3.63;0.50;;;;;;;-142.77;100.00;74826.00;5070574;28;20056;-76
2021/07/30 11:48:46;;;;;;;2.30;1.02;;;;;;;-142.77;100.00;74826.00;5070836;28;20040;-75
2021/07/30 11:51:49;;;;;;;4.65;0.75;;;;;;;-142.77;100.00;74826.00;5071206;28;20040;-76
2021/07/30 11:54:52;;;;;;;2.10;0.52;;;;;;;-142.77;100.00;74826.00;5071130;28;20044;-75
2021/07/30 11:57:56;;;;;;;3.30;0.85;;;;;;;-142.77;100.00;74826.00;5071105;28;20047;-74
2021/07/30 12:01:09;;;;;;;7.65;1.40;;;;;;;-142.77;100.00;74826.00;5070194;28;20057;-73
2021/07/30 12:04:17;;;;;;;4.45;1.25;;;;;;;-142.77;100.00;74826.00;5071102;28;20475;-74
2021/07/30 12:07:47;;;;;;;5.28;1.30;;;;;;;-142.77;100.00;74826.00;5073051;28;20052;-75
2021/07/30 12:10:51;;;;;;;3.20;1.77;;;;;;;-142.77;100.00;74826.00;5074923;28;20462;-75
2021/07/30 12:13:55;;;;;;;2.50;0.98;;;;;;;-142.77;100.00;74826.00;5074614;28;20390;-75
2021/07/30 12:17:00;;;;;;;3.85;1.60;;;;;;;-142.77;100.00;74826.00;5074846;28;20044;-76
2021/07/30 12:20:06;;;;;;;7.15;1.60;;;;;;;-142.77;100.00;74826.00;5074358;28;20524;-75
2021/07/30 12:23:14;;;;;;;2.38;1.15;;;;;;;-142.77;100.00;74826.00;5073810;28;20041;-76
2021/07/30 12:26:36;;;;;;;1.58;1.15;;;;;;;-142.77;100.00;74826.00;5074509;28;20053;-76
2021/07/30 12:29:42;;;;;;;0.60;0.60;;;;;;;-142.77;100.00;74826.00;5073756;28;20059;-75
2021/07/30 12:32:46;;;;;;;0.95;0.60;;;;;;;-142.77;100.00;74826.00;5074308;28;20044;-75
2021/07/30 12:35:49;;;;;;;0.68;0.30;;;;;;;-142.77;100.00;74826.00;5074380;28;20048;-75
2021/07/30 12:38:57;;;;;;;0.75;0.55;;;;;;;-142.77;100.00;74826.00;5074283;28;20378;-75
2021/07/30 12:42:00;;;;;;;1.20;0.63;;;;;;;-142.77;100.00;74826.00;5074216;28;20057;-76
2021/07/30 12:45:14;;;;;;;7.35;0.57;;;;;;;-142.77;100.00;74826.00;5073976;28;20059;-75
2021/07/30 12:48:22;;;;;;;1.65;0.63;;;;;;;-142.77;100.00;74826.00;5074066;28;20044;-75
2021/07/30 12:51:26;;;;;;;3.58;0.30;;;;;;;-142.77;100.00;74826.00;5073566;28;20397;-75
2021/07/30 12:54:36;;;;;;;0.45;0.38;;;;;;;-142.77;100.00;74826.00;5073507;28;20048;-75
2021/07/30 12:57:51;;;;;;;1.92;0.40;;;;;;;-142.77;100.00;74826.00;5073400;28;20052;-75
2021/07/30 13:00:56;;;;;;;0.73;0.43;;;;;;;-142.77;100.00;74826.00;5073184;28;20037;-76
2021/07/30 13:04:02;;;;;;;4.35;0.68;;;;;;;-142.77;100.00;74826.00;5073915;28;20040;-75
2021/07/30 13:07:06;;;;;;;1.98;0.52;;;;;;;-142.77;100.00;74826.00;5073985;28;20454;-75
2021/07/30 13:10:10;;;;;;;1.90;1.10;;;;;;;-142.77;100.00;74826.00;5073692;28;20048;-75
2021/07/30 13:13:16;;;;;;;0.40;0.40;;;;;;;-142.77;100.00;74826.00;5073523;28;20482;-76
2021/07/30 13:16:20;;;;;;;0.25;0.25;;;;;;;-142.77;100.00;74826.00;5073300;28;20055;-76
2021/07/30 13:19:23;;;;;;;0.80;0.40;;;;;;;-142.77;100.00;74826.00;5072593;28;20449;-76
2021/07/30 13:22:26;;;;;;;0.20;0.20;;;;;;;-142.77;100.00;74826.00;5071956;28;20504;-76
2021/07/30 13:25:35;;;;;;;2.15;0.63;;;;;;;-142.77;100.00;74826.00;5072826;28;20037;-75
2021/07/30 13:28:38;;;;;;;1.95;0.73;;;;;;;-142.77;100.00;74826.00;5072898;28;20418;-75
2021/07/30 13:31:42;;;;;;;2.33;0.80;;;;;;;-142.77;100.00;74826.00;5072635;28;20041;-75
2021/07/30 13:34:46;;;;;;;2.50;0.60;;;;;;;-142.77;100.00;74826.00;5072807;28;20049;-74
2021/07/30 13:37:49;;;;;;;2.63;0.30;;;;;;;-142.77;100.00;74826.00;5072294;28;20049;-74
2021/07/30 13:40:54;;;;;;;1.33;0.43;;;;;;;-142.77;100.00;74826.00;5072105;28;20052;-74
2021/07/30 13:43:58;;;;;;;0.25;0.10;;;;;;;-142.77;100.00;74826.00;5071811;28;20045;-74
2021/07/30 13:47:01;;;;;;;0.63;0.20;;;;;;;-142.77;100.00;74826.00;5072327;28;20051;-74
2021/07/30 13:50:05;;;;;;;0.30;0.20;;;;;;;-142.77;100.00;74826.00;5071343;28;20047;-74
2021/07/30 13:53:09;;;;;;;0.22;0.10;;;;;;;-142.77;100.00;74826.00;5072173;28;20040;-74
2021/07/30 13:56:12;;;;;;;0.28;0.17;;;;;;;-142.77;100.00;74826.00;5072632;28;20382;-73
2021/07/30 13:59:16;;;;;;;0.13;0.10;;;;;;;-142.77;100.00;74826.00;5072740;28;20047;-74
2021/07/30 14:02:19;;;;;;;0.65;0.15;;;;;;;-142.77;100.00;74826.00;5072305;28;20052;-74
2021/07/30 14:05:22;;;;;;;0.45;0.20;;;;;;;-142.77;100.00;74826.00;5072260;28;20071;-74
2021/07/30 14:08:25;;;;;;;1.75;0.17;;;;;;;-142.77;100.00;74826.00;5072070;28;20044;-74
2021/07/30 14:11:29;;;;;;;0.10;0.10;;;;;;;-142.77;100.00;74826.00;5071999;28;20051;-74
2021/07/30 14:14:36;;;;;;;0.55;0.38;;;;;;;-142.77;100.00;74826.00;5072066;28;20072;-74
2021/07/30 14:17:40;;;;;;;7.97;0.43;;;;;;;-142.77;100.00;74826.00;5071956;28;20414;-74
2021/07/30 14:20:43;;;;;;;0.88;0.40;;;;;;;-142.77;100.00;74826.00;5071739;28;20048;-74
2021/07/30 14:23:47;;;;;;;0.32;0.30;;;;;;;-142.77;100.00;74826.00;5071881;28;20383;-74
2021/07/30 14:26:50;;;;;;;0.60;0.32;;;;;;;-142.77;100.00;74826.00;5071996;28;20059;-74
2021/07/30 14:29:54;;;;;;;1.25;0.40;;;;;;;-142.77;100.00;74826.00;5071324;28;20052;-74
2021/07/30 14:32:57;;;;;;;1.95;0.50;;;;;;;-142.77;100.00;74826.00;5071789;28;20048;-74
2021/07/30 14:36:05;;;;;;;0.20;0.20;;;;;;;-142.77;100.00;74826.00;5072023;28;20052;-74
2021/07/30 14:39:09;;;;;;;0.57;0.38;;;;;;;-142.77;100.00;74826.00;5071735;28;20040;-73
2021/07/30 14:42:12;;;;;;;0.10;0.10;;;;;;;-142.77;100.00;74826.00;5071557;28;20044;-73
2021/07/30 14:45:16;;;;;;;0.38;0.10;;;;;;;-142.77;100.00;74826.00;5070415;28;20594;-74
2021/07/30 14:48:19;;;;;;;0.25;0.08;;;;;;;-142.77;100.00;74826.00;5071576;28;20410;-75
2021/07/30 14:51:22;;;;;;;0.35;0.10;;;;;;;-142.77;100.00;74826.00;5071353;28;20045;-74
2021/07/30 14:54:28;;;;;;;0.35;0.20;;;;;;;-142.77;100.00;74826.00;5071002;28;20063;-74
2021/07/30 14:57:33;;;;;;;0.47;0.30;;;;;;;-142.77;100.00;74826.00;5071182;28;20060;-74
2021/07/30 15:00:36;;;;;;;0.40;0.10;;;;;;;-142.77;100.00;74826.00;5071118;28;20048;-74
2021/07/30 15:03:40;;;;;;;0.85;0.10;;;;;;;-142.77;100.00;74826.00;5071215;28;20048;-73
2021/07/30 15:06:43;;;;;;;0.20;0.10;;;;;;;-142.77;100.00;74826.00;5071094;28;20037;-73
2021/07/30 15:09:47;;;;;;;0.47;0.30;;;;;;;-142.77;100.00;74826.00;5070610;28;20489;-74
2021/07/30 15:12:53;;;;;;;9.63;0.40;;;;;;;-142.77;100.00;74826.00;5071292;28;20470;-74
2021/07/30 15:15:57;;;;;;;0.50;0.10;;;;;;;-142.77;100.00;74826.00;5071181;28;20036;-74
2021/07/30 15:19:00;;;;;;;0.77;0.20;;;;;;;-142.77;100.00;74826.00;5071526;28;20048;-75
2021/07/30 15:22:04;;;;;;;0.28;0.15;;;;;;;-142.77;100.00;74826.00;5070594;28;20059;-74
2021/07/30 15:25:08;;;;;;;0.10;0.00;;;;;;;-142.77;100.00;74826.00;5071262;28;20044;-74
2021/07/30 15:28:12;;;;;;;0.20;0.20;;;;;;;-142.77;100.00;74826.00;5071103;28;20048;-74
2021/07/30 15:31:16;;;;;;;0.45;0.20;;;;;;;-142.77;100.00;74826.00;5070971;28;20398;-74
2021/07/30 15:34:19;;;;;;;1.10;0.22;;;;;;;-142.77;100.00;74826.00;5070466;28;20045;-74
2021/07/30 15:37:23;;;;;;;0.10;0.00;;;;;;;-142.77;100.00;74826.00;5070704;28;20040;-74
2021/07/30 15:40:26;;;;;;;0.10;0.10;;;;;;;-142.77;100.00;74826.00;5070549;28;20053;-74
2021/07/30 15:43:29;;;;;;;1.67;0.45;;;;;;;-142.77;100.00;74826.00;5074644;28;20052;-75
2021/07/30 15:46:33;;;;;;;0.52;0.20;;;;;;;-142.77;100.00;74826.00;5074693;28;20060;-75
2021/07/30 15:49:37;;;;;;;0.85;0.38;;;;;;;-142.77;100.00;74826.00;5074275;28;20402;-75
2021/07/30 15:52:40;;;;;;;1.65;0.45;;;;;;;-142.77;100.00;74826.00;5074715;28;20632;-74
2021/07/30 15:55:44;;;;;;;2.92;0.30;;;;;;;-142.77;100.00;74826.00;5074556;28;20044;-75
2021/07/30 15:58:48;;;;;;;1.55;0.63;;;;;;;-142.77;100.00;74826.00;5074935;28;20402;-75
2021/07/30 16:01:51;;;;;;;0.63;0.28;;;;;;;-142.77;100.00;74826.00;5074896;28;20056;-75
2021/07/30 16:04:54;;;;;;;0.30;0.22;;;;;;;-142.77;100.00;74826.00;5074780;28;20044;-75
2021/07/30 16:07:58;;;;;;;1.55;0.52;;;;;;;-142.77;100.00;74826.00;5074647;28;20045;-75
2021/07/30 16:11:04;;;;;;;0.30;0.17;;;;;;;-142.77;100.00;74826.00;5074807;28;20413;-75
2021/07/30 16:14:07;;;;;;;0.17;0.10;;;;;;;-142.77;100.00;74826.00;5074484;28;20048;-75
2021/07/30 16:17:13;;;;;;;1.08;0.50;;;;;;;-142.77;100.00;74826.00;5074186;28;20049;-76
2021/07/30 16:20:16;;;;;;;1.42;0.20;;;;;;;-142.77;100.00;74826.00;5074240;28;20044;-75
2021/07/30 16:23:20;;;;;;;1.17;0.45;;;;;;;-142.77;100.00;74826.00;5073113;28;20044;-76
2021/07/30 16:26:24;;;;;;;12.50;0.85;;;;;;;-142.77;100.00;74826.00;5072837;28;20048;-76
2021/07/30 16:29:28;;;;;;;0.47;0.47;;;;;;;-142.77;100.00;74826.00;5073498;28;20490;-77
2021/07/30 16:32:31;;;;;;;0.50;0.25;;;;;;;-142.77;100.00;74826.00;5073834;28;20049;-76
2021/07/30 16:35:35;;;;;;;0.50;0.30;;;;;;;-142.77;100.00;74826.00;5073669;28;20036;-76
2021/07/30 16:38:39;;;;;;;2.05;0.38;;;;;;;-142.77;100.00;74826.00;5073804;28;20063;-76
2021/07/30 16:41:43;;;;;;;1.25;0.28;;;;;;;-142.77;100.00;74826.00;5073526;28;20041;-76
2021/07/30 16:44:46;;;;;;;8.15;0.47;;;;;;;-142.77;100.00;74826.00;5074013;28;20045;-75
2021/07/30 16:47:49;;;;;;;2.00;0.47;;;;;;;-142.77;100.00;74826.00;5074056;28;20045;-76
2021/07/30 16:50:53;;;;;;;0.30;0.13;;;;;;;-142.77;100.00;74826.00;5074096;28;20055;-76